»·PEaware :: BISON14 KFMN-KABQ

BISON14 :: KFMN-KABQ

FLIGHT INFORMATION

Flight Status: Arrived
Operator: Unknown
More flights by this operator :: More flights under this callsign
Pilot: Jordan C. (21690)
Aircraft: BEECH AIRCRAFT T-6A TEXAN
(TEX2)
More flights by this aircraft type
Origin: KFMN Four Corners Regl
United States
Destination: KABQ Albuquerque Intl Sunport
United States
More flights between these airports :: More routes between these airports
Route: +CHACO1 RSK V187 TANER CURLY3
File this flight plan on PilotEdge
Remarks:
Altitude:
(Current/Filed)
13,000ft
Speed:
(Current/Filed)
250kts
Departed: 10-Jun-20 10:48 AM
Arrived: 10-Jun-20 11:25 AM
Distance/Time
Traveled:
129nm/0:36
Distance/Time
To Go:
Arrived

Flight Plot

Page will automatically refresh every two minutes.

Flight plan parsing failed; only flown route is shown


Map Options




Map Legend


Flown Route
Filed Route
Departure Airport
Arrival Airport
Navaid (VOR, NDB)
Fix

Horizontal Profiles

Position Reports

Time Latitude Longitude Heading Altitude Ground
Speed
10-Jun-20 10:02 36.738992 -108.231896 346 5507ft 0kts
10-Jun-20 10:03 36.738992 -108.231896 346 5507ft 0kts
10-Jun-20 10:04 36.738992 -108.231896 346 5507ft 0kts
10-Jun-20 10:05 36.738992 -108.231896 346 5507ft 0kts
10-Jun-20 10:06 36.738992 -108.231896 346 5507ft 0kts
10-Jun-20 10:07 36.738992 -108.231896 346 5507ft 0kts
10-Jun-20 10:08 36.738992 -108.231896 346 5507ft 0kts
10-Jun-20 10:10 36.738992 -108.231896 346 5507ft 0kts
10-Jun-20 10:11 36.738992 -108.231896 346 5507ft 0kts
10-Jun-20 10:12 36.738992 -108.231896 346 5507ft 0kts
10-Jun-20 10:13 36.738992 -108.231896 346 5507ft 0kts
10-Jun-20 10:14 36.738992 -108.231896 346 5507ft 0kts
10-Jun-20 10:15 36.738992 -108.231896 346 5507ft 0kts
10-Jun-20 10:16 36.738992 -108.231896 346 5507ft 0kts
10-Jun-20 10:17 36.738992 -108.231896 346 5507ft 0kts
10-Jun-20 10:18 36.738992 -108.231896 346 5507ft 0kts
10-Jun-20 10:19 36.738992 -108.231896 346 5507ft 0kts
10-Jun-20 10:20 36.738992 -108.231896 346 5507ft 0kts
10-Jun-20 10:21 36.738992 -108.231896 346 5507ft 0kts
10-Jun-20 10:22 36.738992 -108.231896 346 5507ft 0kts
10-Jun-20 10:23 36.738992 -108.231896 346 5507ft 0kts
10-Jun-20 10:24 36.738992 -108.231896 346 5507ft 0kts
10-Jun-20 10:25 36.738992 -108.231896 346 5507ft 0kts
10-Jun-20 10:26 36.738992 -108.231896 346 5507ft 0kts
10-Jun-20 10:26 36.738992 -108.231896 346 5507ft 0kts
10-Jun-20 10:28 36.738992 -108.231896 346 5507ft 0kts
10-Jun-20 10:28 36.738992 -108.231896 346 5507ft 0kts
10-Jun-20 10:29 36.738992 -108.231896 346 5507ft 0kts
10-Jun-20 10:31 36.738992 -108.231896 346 5507ft 0kts
10-Jun-20 10:31 36.738992 -108.231896 346 5507ft 0kts
10-Jun-20 10:32 36.738992 -108.231896 346 5507ft 0kts
10-Jun-20 10:33 36.738992 -108.231896 346 5507ft 0kts
10-Jun-20 10:34 36.738992 -108.231896 346 5507ft 0kts
10-Jun-20 10:35 36.738992 -108.231896 346 5507ft 0kts
10-Jun-20 10:36 36.738992 -108.231896 346 5507ft 0kts
10-Jun-20 10:37 36.738992 -108.231896 346 5507ft 0kts
10-Jun-20 10:38 36.738992 -108.231896 346 5507ft 0kts
10-Jun-20 10:39 36.738992 -108.231896 346 5507ft 0kts
10-Jun-20 10:40 36.739138 -108.232199 270 5507ft 8kts
10-Jun-20 10:41 36.740484 -108.231085 80 5507ft 15kts
10-Jun-20 10:42 36.740691 -108.223766 88 5507ft 19kts
10-Jun-20 10:43 36.740608 -108.219618 61 5507ft 0kts
10-Jun-20 10:44 36.740608 -108.219618 61 5507ft 0kts
10-Jun-20 10:45 36.740608 -108.219618 61 5507ft 0kts
10-Jun-20 10:46 36.740794 -108.219064 80 5507ft 7kts
10-Jun-20 10:47 36.741479 -108.223125 267 5511ft 97kts
10-Jun-20 10:48 36.725547 -108.266297 176 7520ft 191kts
10-Jun-20 10:49 36.683854 -108.227479 138 10874ft 191kts
10-Jun-20 10:50 36.644992 -108.178306 131 13039ft 227kts
10-Jun-20 10:51 36.583949 -108.172568 194 13031ft 243kts
10-Jun-20 10:52 36.518796 -108.200105 202 13034ft 252kts
10-Jun-20 10:53 36.452438 -108.235133 182 13120ft 238kts
10-Jun-20 10:54 36.409996 -108.173041 120 13048ft 249kts
10-Jun-20 10:55 36.376573 -108.096043 114 12958ft 252kts
10-Jun-20 10:56 36.344945 -108.018228 118 13015ft 251kts
10-Jun-20 10:57 36.311895 -107.940988 117 12851ft 259kts
10-Jun-20 10:58 36.277483 -107.864467 118 13060ft 251kts
10-Jun-20 10:59 36.242067 -107.788115 120 13020ft 251kts
10-Jun-20 11:00 36.205731 -107.712775 120 12810ft 258kts
10-Jun-20 11:01 36.156636 -107.652846 145 13011ft 252kts
10-Jun-20 11:02 36.098951 -107.603436 144 13095ft 252kts
10-Jun-20 11:03 36.040714 -107.553664 144 13015ft 255kts
10-Jun-20 11:04 35.983078 -107.502720 143 13006ft 253kts
10-Jun-20 11:05 35.922594 -107.457250 147 12965ft 255kts
10-Jun-20 11:06 35.864105 -107.408016 146 12834ft 260kts
10-Jun-20 11:07 35.805082 -107.362675 146 13164ft 254kts
10-Jun-20 11:08 35.744132 -107.315628 150 12861ft 260kts
10-Jun-20 11:09 35.684859 -107.268829 151 13186ft 248kts
10-Jun-20 11:10 35.621859 -107.229096 150 12932ft 258kts
10-Jun-20 11:11 35.560674 -107.185325 149 13038ft 255kts
10-Jun-20 11:12 35.501680 -107.136967 147 13024ft 255kts
10-Jun-20 11:13 35.440039 -107.094645 153 13080ft 254kts
10-Jun-20 11:14 35.377759 -107.051957 151 12962ft 258kts
10-Jun-20 11:15 35.315301 -107.006689 152 11167ft 265kts
10-Jun-20 11:16 35.251394 -106.963483 150 8974ft 261kts
10-Jun-20 11:17 35.195388 -106.913936 107 8931ft 249kts
10-Jun-20 11:18 35.183978 -106.831215 99 8949ft 251kts
10-Jun-20 11:19 35.168409 -106.749108 104 8932ft 252kts
10-Jun-20 11:20 35.140218 -106.673586 132 8874ft 259kts
10-Jun-20 11:21 35.091585 -106.617833 129 7780ft 201kts
10-Jun-20 11:22 35.070291 -106.572036 94 6489ft 130kts
10-Jun-20 11:23 35.046572 -106.560406 230 5560ft 110kts
10-Jun-20 11:24 35.044139 -106.587561 283 5329ft 18kts
10-Jun-20 11:25 35.045206 -106.588122 359 5329ft 1kts
10-Jun-20 11:26 35.046459 -106.591232 359 5326ft 9kts
10-Jun-20 11:27 35.047662 -106.591267 56 5326ft 0kts

Navigation Log

Ident Type
Flight plan parsing failed, navigation log unavailable